createdAt,value
2022-12-08T00:01:24.588Z,23.07
2022-12-08T00:05:43.936Z,21.43
2022-12-08T00:09:34.724Z,23.40
2022-12-08T00:13:20.938Z,19.87
2022-12-08T00:17:06.316Z,23.93
2022-12-08T00:20:56.112Z,24.07
2022-12-08T00:24:40.131Z,23.20
2022-12-08T00:28:23.076Z,20.93
2022-12-08T00:32:07.798Z,23.60
2022-12-08T00:35:54.929Z,22.07
2022-12-08T00:39:37.656Z,21.50
2022-12-08T00:43:20.433Z,21.53
2022-12-08T00:47:03.226Z,23.43
2022-12-08T00:50:51.612Z,20.40
2022-12-08T00:54:35.661Z,20.03
2022-12-08T00:58:18.425Z,23.00
2022-12-08T01:02:01.130Z,20.00
2022-12-08T01:05:44.504Z,19.37
2022-12-08T01:09:27.173Z,21.77
2022-12-08T01:13:11.775Z,22.13
2022-12-08T01:16:54.506Z,21.30
2022-12-08T01:20:49.411Z,19.63
2022-12-08T01:24:32.077Z,20.70
2022-12-08T01:28:18.178Z,19.60
2022-12-08T01:32:00.897Z,22.47
2022-12-08T01:35:56.438Z,23.20
2022-12-08T01:39:40.881Z,21.70
2022-12-08T01:43:24.977Z,23.27
2022-12-08T01:47:10.780Z,23.73
2022-12-08T01:50:58.137Z,22.33
2022-12-08T01:54:44.309Z,20.30
2022-12-08T01:58:31.733Z,23.07
2022-12-08T02:02:15.161Z,22.27
2022-12-08T02:06:10.189Z,21.73
2022-12-08T02:09:56.071Z,22.23
2022-12-08T02:13:40.301Z,23.27
2022-12-08T02:17:33.234Z,22.63
2022-12-08T02:21:20.099Z,21.73
2022-12-08T02:25:08.166Z,23.43
2022-12-08T02:29:17.706Z,23.30
2022-12-08T02:33:29.160Z,20.97
2022-12-08T02:37:18.990Z,22.23
2022-12-08T02:41:09.674Z,20.97
2022-12-08T02:44:58.828Z,23.50
2022-12-08T02:48:41.560Z,23.30
2022-12-08T02:52:41.254Z,22.47
2022-12-08T02:56:54.720Z,24.53
2022-12-08T03:00:42.536Z,23.77
2022-12-08T03:04:35.257Z,22.97
2022-12-08T03:08:26.069Z,23.53
2022-12-08T03:12:15.212Z,20.17
2022-12-08T03:15:58.025Z,20.63
2022-12-08T03:19:43.444Z,22.87
2022-12-08T03:23:27.927Z,22.13
2022-12-08T03:27:12.517Z,22.77
2022-12-08T03:30:58.121Z,24.07
2022-12-08T03:34:46.966Z,23.70
2022-12-08T03:38:38.276Z,21.90
2022-12-08T03:42:26.808Z,19.83
2022-12-08T03:46:09.588Z,22.67
2022-12-08T03:49:52.981Z,23.83
2022-12-08T03:53:37.056Z,24.00
2022-12-08T03:57:22.672Z,22.27
2022-12-08T04:01:05.384Z,22.83
2022-12-08T04:04:49.964Z,25.30
2022-12-08T04:08:38.671Z,23.83
2022-12-08T04:12:22.819Z,21.50
2022-12-08T04:16:06.487Z,22.80
2022-12-08T04:19:49.208Z,22.60
2022-12-08T04:23:31.868Z,24.93
2022-12-08T04:27:14.580Z,21.57
2022-12-08T04:30:58.695Z,20.97
2022-12-08T04:34:41.580Z,23.70
2022-12-08T04:38:24.321Z,21.20
2022-12-08T04:42:07.064Z,19.63
2022-12-08T04:45:49.805Z,21.07
2022-12-08T04:49:33.917Z,22.67
2022-12-08T04:53:16.668Z,24.57
2022-12-08T04:57:04.274Z,24.80
2022-12-08T05:00:47.713Z,25.10
2022-12-08T05:04:30.431Z,23.67
2022-12-08T05:08:14.726Z,23.60
2022-12-08T05:11:57.499Z,24.80
2022-12-08T05:15:40.245Z,22.27
2022-12-08T05:19:25.685Z,22.83
2022-12-08T05:23:08.450Z,21.30
2022-12-08T05:26:52.574Z,20.67
2022-12-08T05:30:35.287Z,22.10
2022-12-08T05:34:18.034Z,21.00
2022-12-08T05:38:03.637Z,21.83
2022-12-08T05:41:46.410Z,26.43
2022-12-08T05:45:33.348Z,22.00
2022-12-08T05:49:16.245Z,24.63
2022-12-08T05:53:01.808Z,26.43
2022-12-08T05:56:44.529Z,33.87
2022-12-08T06:00:34.817Z,28.17
2022-12-08T06:04:17.531Z,24.23
2022-12-08T06:08:00.274Z,21.73
2022-12-08T06:11:43.433Z,25.97
2022-12-08T06:15:26.269Z,22.60
2022-12-08T06:19:10.317Z,22.23
2022-12-08T06:22:53.029Z,21.00
2022-12-08T06:26:36.062Z,23.07
2022-12-08T06:30:19.380Z,22.07
2022-12-08T06:34:02.106Z,24.43
2022-12-08T06:37:46.183Z,24.50
2022-12-08T06:41:28.924Z,30.60
2022-12-08T06:45:14.382Z,31.03
2022-12-08T06:48:57.095Z,26.07
2022-12-08T06:52:49.255Z,25.07
2022-12-08T06:56:37.326Z,24.10
2022-12-08T07:00:23.069Z,23.47
2022-12-08T07:04:06.304Z,21.17
2022-12-08T07:07:49.164Z,20.67
2022-12-08T07:11:32.315Z,24.03
2022-12-08T07:15:16.528Z,25.37
2022-12-08T07:18:59.286Z,25.37
2022-12-08T07:22:42.340Z,22.27
2022-12-08T07:26:25.072Z,22.87
2022-12-08T07:30:09.289Z,20.43
2022-12-08T07:33:56.173Z,21.57
2022-12-08T07:37:39.503Z,23.83
2022-12-08T07:41:24.220Z,20.97
2022-12-08T07:45:08.142Z,20.73
2022-12-08T07:48:51.422Z,20.83
2022-12-08T07:52:36.507Z,26.67
2022-12-08T07:56:19.628Z,21.70
2022-12-08T08:00:03.055Z,25.30
2022-12-08T08:03:45.955Z,22.93
2022-12-08T08:07:28.642Z,22.37
2022-12-08T08:11:19.016Z,20.30
2022-12-08T08:15:05.456Z,18.60
2022-12-08T08:18:48.830Z,19.47
2022-12-08T08:22:31.537Z,18.80
2022-12-08T08:26:15.826Z,19.80
2022-12-08T08:29:58.563Z,18.40
2022-12-08T08:33:41.289Z,16.80
2022-12-08T08:37:26.011Z,16.90
2022-12-08T08:41:10.145Z,13.90
2022-12-08T08:44:57.242Z,13.43
2022-12-08T08:48:42.811Z,10.57
2022-12-08T08:52:25.595Z,12.17
2022-12-08T08:56:10.258Z,12.87
2022-12-08T08:59:52.975Z,12.17
2022-12-08T09:03:37.053Z,10.90
2022-12-08T09:07:19.752Z,12.43
2022-12-08T09:11:02.563Z,9.43
2022-12-08T09:14:45.846Z,13.73
2022-12-08T09:18:28.597Z,12.50
2022-12-08T09:22:12.666Z,15.17
2022-12-08T09:25:55.454Z,10.37
2022-12-08T09:29:38.244Z,12.83
2022-12-08T09:33:20.984Z,25.87
2022-12-08T09:37:03.734Z,19.80
2022-12-08T09:40:50.874Z,23.07
2022-12-08T09:44:50.435Z,24.77
2022-12-08T09:48:35.398Z,22.93
2022-12-08T09:52:22.774Z,17.67
2022-12-08T09:56:10.449Z,25.43
2022-12-08T09:59:56.229Z,22.93
2022-12-08T10:03:39.021Z,21.73
2022-12-08T10:07:46.676Z,21.80
2022-12-08T10:11:39.495Z,21.20
2022-12-08T10:15:43.000Z,23.23
2022-12-08T10:19:26.683Z,86.60
2022-12-08T10:23:15.184Z,25.87
2022-12-08T10:26:59.263Z,24.03
2022-12-08T10:30:42.091Z,27.97
2022-12-08T10:34:25.192Z,29.83
2022-12-08T10:38:18.134Z,29.83
2022-12-08T10:42:09.356Z,26.73
2022-12-08T10:45:52.522Z,30.67
2022-12-08T10:49:36.031Z,28.80
2022-12-08T10:53:22.368Z,32.13
2022-12-08T10:57:09.258Z,30.73
2022-12-08T11:00:53.178Z,28.57
2022-12-08T11:04:37.575Z,33.77
2022-12-08T11:08:20.302Z,32.37
2022-12-08T11:12:10.403Z,31.60
2022-12-08T11:15:56.279Z,30.43
2022-12-08T11:19:40.506Z,28.87
2022-12-08T11:23:26.394Z,28.87
2022-12-08T11:27:10.836Z,32.23
2022-12-08T11:30:58.716Z,28.43
2022-12-08T11:34:43.945Z,27.13
2022-12-08T11:38:28.149Z,31.83
2022-12-08T11:42:14.289Z,28.30
2022-12-08T11:46:00.216Z,29.57
2022-12-08T11:49:43.996Z,29.60
2022-12-08T11:53:30.471Z,32.43
2022-12-08T11:57:16.455Z,32.67
2022-12-08T12:00:59.162Z,30.40
2022-12-08T12:04:45.437Z,29.33
2022-12-08T12:08:38.536Z,26.67
2022-12-08T12:12:39.277Z,26.60
2022-12-08T12:16:48.181Z,32.37
2022-12-08T12:20:36.822Z,28.50
2022-12-08T12:24:26.047Z,25.10
2022-12-08T12:28:14.631Z,27.17
2022-12-08T12:31:59.603Z,26.87
2022-12-08T12:35:44.901Z,29.67
2022-12-08T12:39:30.221Z,28.73
2022-12-08T12:43:23.682Z,26.87
2022-12-08T12:47:10.560Z,28.67
2022-12-08T12:50:55.135Z,27.10
2022-12-08T12:54:37.857Z,25.00
2022-12-08T12:58:38.960Z,26.23
2022-12-08T13:02:24.425Z,24.33
2022-12-08T13:06:12.909Z,25.83
2022-12-08T13:10:00.033Z,28.07
2022-12-08T13:13:56.775Z,24.33
2022-12-08T13:17:45.707Z,22.13
2022-12-08T13:21:33.669Z,24.03
2022-12-08T13:25:48.621Z,35.10
2022-12-08T13:29:33.289Z,27.00
2022-12-08T13:33:19.359Z,24.93
2022-12-08T13:37:20.104Z,30.07
2022-12-08T13:41:04.894Z,27.03
2022-12-08T13:50:36.581Z,26.47
2022-12-08T13:57:11.498Z,30.33
2022-12-08T14:01:05.342Z,25.73
2022-12-08T14:05:16.778Z,28.53
2022-12-08T14:09:08.511Z,28.27
2022-12-08T14:12:55.984Z,31.47
2022-12-08T14:16:42.193Z,29.50
2022-12-08T14:20:26.974Z,30.63
2022-12-08T14:24:10.390Z,28.60
2022-12-08T14:27:58.149Z,29.27
2022-12-08T14:31:42.583Z,32.53
2022-12-08T14:35:26.994Z,29.80
2022-12-08T14:39:10.210Z,26.60
2022-12-08T14:42:54.479Z,32.70
2022-12-08T14:46:38.065Z,31.40
2022-12-08T14:50:46.043Z,29.83
2022-12-08T14:54:30.694Z,29.30
2022-12-08T14:58:19.361Z,32.53
2022-12-08T15:02:14.880Z,34.57
2022-12-08T15:06:00.011Z,37.07
2022-12-08T15:09:45.108Z,27.83
2022-12-08T15:13:28.128Z,26.13
2022-12-08T15:17:29.727Z,25.57
2022-12-08T15:21:13.759Z,26.60
2022-12-08T15:24:57.102Z,26.43
2022-12-08T15:28:39.809Z,25.90
2022-12-08T15:32:24.158Z,51.87
2022-12-08T15:36:07.445Z,28.10
2022-12-08T15:39:52.005Z,25.70
2022-12-08T15:43:35.680Z,27.17
2022-12-08T15:47:20.580Z,25.13
2022-12-08T15:51:06.155Z,25.80
2022-12-08T15:54:49.649Z,27.20
2022-12-08T16:03:05.007Z,38.37
2022-12-08T16:11:28.921Z,25.40
2022-12-08T16:15:49.616Z,32.37
2022-12-08T16:18:51.031Z,33.63
2022-12-08T16:27:50.722Z,29.63
2022-12-08T16:30:44.149Z,38.57
2022-12-08T16:34:26.978Z,32.90
2022-12-08T16:38:11.331Z,33.97
2022-12-08T16:42:11.581Z,32.43
2022-12-08T16:45:55.719Z,36.60
2022-12-08T16:49:39.135Z,31.00
2022-12-08T16:53:24.694Z,31.73
2022-12-08T16:57:07.689Z,30.83
2022-12-08T17:00:50.456Z,45.50
2022-12-08T17:04:36.593Z,45.93
2022-12-08T17:08:19.584Z,41.57
2022-12-08T17:12:04.342Z,42.70
2022-12-08T17:15:47.342Z,29.67
2022-12-08T17:19:30.204Z,28.77
2022-12-08T17:23:14.378Z,31.67
2022-12-08T17:26:58.696Z,32.20
2022-12-08T17:30:41.805Z,27.40
2022-12-08T17:34:24.667Z,30.57
2022-12-08T17:38:07.475Z,30.07
2022-12-08T17:41:54.054Z,30.17
2022-12-08T17:45:42.324Z,29.03
2022-12-08T17:49:26.965Z,28.53
2022-12-08T17:53:12.352Z,32.87
2022-12-08T17:56:58.641Z,29.47
2022-12-08T18:00:41.602Z,32.40
2022-12-08T18:04:28.032Z,28.70
2022-12-08T18:08:11.095Z,29.23
2022-12-08T18:11:56.879Z,33.90
2022-12-08T18:15:40.920Z,32.80
2022-12-08T18:19:23.632Z,36.17
2022-12-08T18:23:06.328Z,35.83
2022-12-08T18:26:50.619Z,35.43
2022-12-08T18:30:33.411Z,31.60
2022-12-08T18:34:18.893Z,32.73
2022-12-08T18:38:01.608Z,36.97
2022-12-08T18:41:44.340Z,31.97
2022-12-08T18:45:27.082Z,37.47
2022-12-08T18:49:10.611Z,34.37
2022-12-08T18:52:54.727Z,59.37
2022-12-08T18:56:37.968Z,39.50
2022-12-08T19:00:21.303Z,36.93
2022-12-08T19:04:27.464Z,36.70
2022-12-08T19:08:09.369Z,36.83
2022-12-08T19:11:52.254Z,36.77
2022-12-08T19:15:35.205Z,39.60
2022-12-08T19:19:18.081Z,40.77
2022-12-08T19:23:00.825Z,43.80
2022-12-08T19:26:45.196Z,43.33
2022-12-08T19:30:27.899Z,49.03
2022-12-08T19:34:11.227Z,56.17
2022-12-08T19:37:54.772Z,52.70
2022-12-08T19:41:56.861Z,52.37
2022-12-08T19:45:41.098Z,49.60
2022-12-08T19:49:24.061Z,53.57
2022-12-08T19:53:08.498Z,51.60
2022-12-08T19:56:51.440Z,50.73
2022-12-08T20:00:35.542Z,51.27
2022-12-08T20:04:20.047Z,52.27
2022-12-08T20:08:03.324Z,63.37
2022-12-08T20:11:46.069Z,59.80
2022-12-08T20:15:28.732Z,55.33
2022-12-08T20:19:11.546Z,51.27
2022-12-08T20:22:55.587Z,61.67
2022-12-08T20:26:38.366Z,53.80
2022-12-08T20:30:21.303Z,56.73
2022-12-08T20:34:04.104Z,67.03
2022-12-08T20:37:46.866Z,68.17
2022-12-08T20:41:36.144Z,68.33
2022-12-08T20:45:21.766Z,62.60
2022-12-08T20:49:05.512Z,91.20
2022-12-08T20:52:48.235Z,61.47
2022-12-08T20:56:32.814Z,64.43
2022-12-08T21:00:16.755Z,68.43
2022-12-08T21:04:01.700Z,63.93
2022-12-08T21:07:45.011Z,73.10
2022-12-08T21:11:28.105Z,68.77
2022-12-08T21:15:13.266Z,61.93
2022-12-08T21:18:57.368Z,61.77
2022-12-08T21:22:42.306Z,62.90
2022-12-08T21:26:28.130Z,62.83
2022-12-08T21:30:16.675Z,59.83
2022-12-08T21:34:04.524Z,58.47
2022-12-08T21:37:50.443Z,59.33
2022-12-08T21:41:50.691Z,63.57
2022-12-08T21:45:35.409Z,54.53
2022-12-08T21:49:18.345Z,56.90
2022-12-08T21:53:01.469Z,50.77
2022-12-08T21:56:45.360Z,60.70
2022-12-08T22:00:28.210Z,58.87
2022-12-08T22:04:18.027Z,52.73
2022-12-08T22:08:01.221Z,52.37
2022-12-08T22:11:47.272Z,54.80
2022-12-08T22:15:30.348Z,55.30
2022-12-08T22:19:14.920Z,54.07
2022-12-08T22:22:57.890Z,53.90
2022-12-08T22:26:40.932Z,52.30
2022-12-08T22:30:23.732Z,56.47
2022-12-08T22:34:06.432Z,57.03
2022-12-08T22:37:52.093Z,53.37
2022-12-08T22:41:34.923Z,49.30
2022-12-08T22:45:17.715Z,51.97
2022-12-08T22:49:00.555Z,53.90
2022-12-08T22:52:43.530Z,54.83
2022-12-08T22:56:27.567Z,53.87
2022-12-08T23:00:12.941Z,45.20
2022-12-08T23:03:56.528Z,43.47
2022-12-08T23:07:40.275Z,42.53
2022-12-08T23:11:25.432Z,43.03
2022-12-08T23:15:10.606Z,42.17
2022-12-08T23:18:54.547Z,41.10
2022-12-08T23:22:37.388Z,36.53
2022-12-08T23:26:22.580Z,38.87
2022-12-08T23:30:06.267Z,40.83
2022-12-08T23:33:51.143Z,43.03
2022-12-08T23:37:34.109Z,39.87
2022-12-08T23:41:17.391Z,43.57
2022-12-08T23:45:00.372Z,39.93
2022-12-08T23:48:43.401Z,43.20
2022-12-08T23:52:27.516Z,40.33
2022-12-08T23:56:12.187Z,40.90
2022-12-08T23:59:55.667Z,41.07
